createdAt,value
2023-09-23T06:59:31.141Z,191.25
2023-09-23T07:00:32.204Z,180.00
2023-09-23T07:01:32.283Z,208.12
2023-09-23T07:02:32.375Z,264.38
2023-09-23T07:03:32.430Z,202.50
2023-09-23T07:04:32.485Z,230.62
2023-09-23T07:05:32.640Z,320.62
2023-09-23T07:06:32.624Z,348.75
2023-09-23T07:07:32.712Z,354.38
2023-09-23T07:08:32.848Z,298.12
2023-09-23T07:09:32.885Z,331.88
2023-09-23T07:10:32.977Z,303.75
2023-09-23T07:11:33.023Z,264.38
2023-09-23T07:12:33.111Z,281.25
2023-09-23T07:13:33.204Z,275.62
2023-09-23T07:14:33.330Z,303.75
2023-09-23T07:15:33.364Z,331.88
2023-09-23T07:16:33.478Z,416.25
2023-09-23T07:17:33.681Z,354.38
2023-09-23T07:18:36.885Z,393.75
2023-09-23T07:19:33.722Z,444.38
2023-09-23T07:20:33.858Z,399.38
2023-09-23T07:21:33.879Z,348.75
2023-09-23T07:22:33.923Z,315.00
2023-09-23T07:24:34.075Z,461.25
2023-09-23T07:25:34.161Z,416.25
2023-09-23T07:26:34.278Z,365.62
2023-09-23T07:27:34.313Z,393.75
2023-09-23T07:28:34.464Z,348.75
2023-09-23T07:29:34.480Z,298.12
2023-09-23T07:30:34.596Z,371.25
2023-09-23T07:31:34.640Z,309.38
2023-09-23T07:32:34.772Z,270.00
2023-09-23T07:33:34.776Z,388.12
2023-09-23T07:34:34.891Z,365.62
2023-09-23T07:35:35.040Z,258.75
2023-09-23T07:36:35.169Z,264.38
2023-09-23T07:37:35.128Z,315.00
2023-09-23T07:38:35.242Z,388.12
2023-09-23T07:39:35.301Z,286.88
2023-09-23T07:40:35.372Z,337.50
2023-09-23T07:41:35.524Z,410.62
2023-09-23T07:42:35.541Z,444.38
2023-09-23T07:43:35.576Z,360.00
2023-09-23T07:44:35.692Z,376.88
2023-09-23T07:45:35.733Z,376.88
2023-09-23T07:46:35.824Z,348.75
2023-09-23T07:47:35.989Z,399.38
2023-09-23T07:48:35.962Z,461.25
2023-09-23T07:49:36.047Z,455.62
2023-09-23T07:50:36.199Z,444.38
2023-09-23T07:51:36.228Z,382.50
2023-09-23T07:52:36.312Z,388.12
2023-09-23T07:53:36.401Z,455.62
2023-09-23T07:54:36.478Z,517.50
2023-09-23T07:55:36.527Z,483.75
2023-09-23T07:56:36.652Z,506.25
2023-09-23T07:57:36.706Z,483.75
2023-09-23T07:58:36.805Z,416.25
2023-09-23T07:59:36.880Z,421.88
2023-09-23T08:00:36.942Z,545.62
2023-09-23T08:01:37.069Z,523.12
2023-09-23T08:02:37.216Z,500.62
2023-09-23T08:03:37.239Z,540.00
2023-09-23T08:04:37.292Z,416.25
2023-09-23T08:05:37.441Z,444.38
2023-09-23T08:06:39.338Z,523.12
2023-09-23T08:07:37.516Z,489.38
2023-09-23T08:08:37.602Z,410.62
2023-09-23T08:09:37.705Z,421.88
2023-09-23T08:10:37.744Z,461.25
2023-09-23T08:11:37.818Z,450.00
2023-09-23T08:12:37.908Z,506.25
2023-09-23T08:13:37.987Z,472.50
2023-09-23T08:14:38.098Z,421.88
2023-09-23T08:15:38.192Z,399.38
2023-09-23T08:16:38.273Z,405.00
2023-09-23T08:17:38.409Z,376.88
2023-09-23T08:18:38.420Z,371.25
2023-09-23T08:19:38.500Z,399.38
2023-09-23T08:20:38.684Z,376.88
2023-09-23T08:21:38.683Z,427.50
2023-09-23T08:22:38.766Z,483.75
2023-09-23T08:23:38.857Z,405.00
2023-09-23T08:24:39.051Z,315.00
2023-09-23T08:25:38.998Z,331.88
2023-09-23T08:26:39.067Z,466.88
2023-09-23T08:27:39.131Z,410.62
2023-09-23T08:28:39.211Z,376.88
2023-09-23T08:29:39.304Z,343.12
2023-09-23T08:30:39.360Z,399.38
2023-09-23T08:31:39.474Z,405.00
2023-09-23T08:32:39.611Z,461.25
2023-09-23T08:33:39.627Z,478.12
2023-09-23T08:34:39.728Z,444.38
2023-09-23T08:35:39.851Z,365.62
2023-09-23T08:36:39.895Z,315.00
2023-09-23T08:37:39.977Z,393.75
2023-09-23T08:38:40.043Z,427.50
2023-09-23T08:39:40.134Z,337.50
2023-09-23T08:40:40.210Z,360.00
2023-09-23T08:41:40.293Z,393.75
2023-09-23T08:42:40.381Z,399.38
2023-09-23T08:43:40.465Z,320.62
2023-09-23T08:44:40.647Z,286.88
2023-09-23T08:45:40.701Z,478.12
2023-09-23T08:46:40.722Z,472.50
2023-09-23T08:47:40.902Z,360.00
2023-09-23T08:48:40.891Z,309.38
2023-09-23T08:49:41.049Z,337.50
2023-09-23T08:50:41.046Z,388.12
2023-09-23T08:51:41.140Z,466.88
2023-09-23T08:52:41.285Z,455.62
2023-09-23T08:53:41.316Z,416.25
2023-09-23T08:54:41.407Z,388.12
2023-09-23T08:55:41.497Z,360.00
2023-09-23T08:56:41.560Z,382.50
2023-09-23T08:57:41.641Z,450.00
2023-09-23T08:58:41.731Z,461.25
2023-09-23T08:59:41.846Z,466.88
2023-09-23T09:00:41.900Z,354.38
2023-09-23T09:01:42.065Z,258.75
2023-09-23T09:02:42.154Z,225.00
2023-09-23T09:03:42.148Z,225.00
2023-09-23T09:04:42.260Z,202.50
2023-09-23T09:05:42.531Z,208.12
2023-09-23T09:06:42.400Z,230.62
2023-09-23T09:07:42.472Z,298.12
2023-09-23T09:08:42.565Z,281.25
2023-09-23T09:09:42.675Z,275.62
2023-09-23T09:10:42.798Z,298.12
2023-09-23T09:11:42.863Z,286.88
2023-09-23T09:12:42.892Z,270.00
2023-09-23T09:13:42.966Z,270.00
2023-09-23T09:14:43.041Z,360.00
2023-09-23T09:15:43.220Z,421.88
2023-09-23T09:16:43.179Z,388.12
2023-09-23T09:17:43.305Z,281.25
2023-09-23T09:18:43.325Z,253.12
2023-09-23T09:19:43.399Z,219.38
2023-09-23T09:20:43.486Z,270.00
2023-09-23T09:21:43.570Z,472.50
2023-09-23T09:22:43.662Z,601.88
2023-09-23T09:23:43.759Z,635.62
2023-09-23T09:24:43.820Z,675.00
2023-09-23T09:25:43.919Z,742.50
2023-09-23T09:26:43.978Z,793.12
2023-09-23T09:27:44.050Z,748.12
2023-09-23T09:28:44.159Z,770.62
2023-09-23T09:29:44.240Z,759.38
2023-09-23T09:30:44.360Z,641.25
2023-09-23T09:31:44.483Z,545.62
2023-09-23T09:32:44.864Z,635.62
2023-09-23T09:33:44.562Z,579.38
2023-09-23T09:34:44.635Z,641.25
2023-09-23T09:35:44.750Z,731.25
2023-09-23T09:36:44.811Z,720.00
2023-09-23T09:37:44.916Z,950.62
2023-09-23T09:38:45.285Z,961.88
2023-09-23T09:39:45.092Z,978.75
2023-09-23T09:40:45.218Z,843.75
2023-09-23T09:41:45.259Z,708.75
2023-09-23T09:42:45.339Z,759.38
2023-09-23T09:43:45.425Z,787.50
2023-09-23T09:44:45.518Z,753.75
2023-09-23T09:45:45.769Z,832.50
2023-09-23T09:46:45.720Z,990.00
2023-09-23T09:47:45.868Z,1023.75
2023-09-23T09:48:46.964Z,1164.38
2023-09-23T09:49:46.154Z,1035.00
2023-09-23T09:50:46.304Z,860.62
2023-09-23T09:51:46.123Z,860.62
2023-09-23T09:52:46.174Z,1023.75
2023-09-23T09:53:46.246Z,894.38
2023-09-23T09:54:46.302Z,843.75
2023-09-23T09:55:46.385Z,922.50
2023-09-23T09:56:46.513Z,708.75
2023-09-23T09:57:46.576Z,680.62
2023-09-23T09:58:46.838Z,585.00
2023-09-23T09:59:46.757Z,495.00
2023-09-23T10:00:46.905Z,523.12
2023-09-23T10:01:46.932Z,551.25
2023-09-23T10:02:47.173Z,596.25
2023-09-23T10:03:47.318Z,748.12
2023-09-23T10:04:47.187Z,714.38
2023-09-23T10:05:47.266Z,781.88
2023-09-23T10:06:47.582Z,905.62
2023-09-23T10:07:47.539Z,945.00
2023-09-23T10:08:47.861Z,984.38
2023-09-23T10:09:47.608Z,1136.25
2023-09-23T10:10:47.743Z,1051.88
2023-09-23T10:11:47.788Z,1012.50
2023-09-23T10:12:47.871Z,1040.62
2023-09-23T10:13:47.950Z,843.75
2023-09-23T10:14:48.018Z,781.88
2023-09-23T10:15:48.107Z,725.62
2023-09-23T10:16:48.236Z,995.62
2023-09-23T10:17:48.449Z,838.12
2023-09-23T10:18:48.663Z,748.12
2023-09-23T10:19:48.407Z,916.88
2023-09-23T10:20:48.470Z,787.50
2023-09-23T10:21:48.605Z,973.12
2023-09-23T10:22:48.638Z,894.38
2023-09-23T10:23:48.794Z,759.38
2023-09-23T10:24:48.812Z,928.12
2023-09-23T10:25:48.908Z,1350.00
2023-09-23T10:26:49.006Z,1113.75
2023-09-23T10:27:49.078Z,888.75
2023-09-23T10:28:49.153Z,826.88
2023-09-23T10:29:49.281Z,821.25
2023-09-23T10:30:49.302Z,1175.62
2023-09-23T10:31:49.349Z,1220.62
2023-09-23T10:32:49.593Z,1755.00
2023-09-23T10:33:49.751Z,3892.50
2023-09-23T10:34:49.661Z,1400.62
2023-09-23T10:35:49.673Z,1091.25
2023-09-23T10:36:49.756Z,1102.50
2023-09-23T10:37:49.863Z,1023.75
2023-09-23T10:38:49.908Z,3324.38
2023-09-23T10:39:49.987Z,607.50
2023-09-23T10:40:50.077Z,883.12
2023-09-23T10:41:50.161Z,590.62
2023-09-23T10:42:50.401Z,776.25
2023-09-23T10:43:50.325Z,1434.38
2023-09-23T10:44:50.417Z,883.12
2023-09-23T10:45:50.491Z,1305.00
2023-09-23T10:46:50.554Z,3521.25
2023-09-23T10:47:50.668Z,1080.00
2023-09-23T10:48:50.715Z,556.88
2023-09-23T10:49:52.106Z,703.12
2023-09-23T10:50:50.877Z,3645.00
2023-09-23T10:51:50.971Z,888.75
2023-09-23T10:52:51.089Z,3577.50
2023-09-23T10:53:51.172Z,613.12
2023-09-23T10:54:51.232Z,3318.75
2023-09-23T10:55:51.311Z,646.88
2023-09-23T10:56:51.382Z,3341.25
2023-09-23T10:57:51.511Z,714.38
2023-09-23T10:58:51.620Z,967.50
2023-09-23T10:59:51.663Z,1209.38
2023-09-23T11:00:51.781Z,1040.62
2023-09-23T11:01:51.916Z,990.00
2023-09-23T11:02:52.193Z,855.00
2023-09-23T11:03:52.065Z,714.38
2023-09-23T11:04:52.091Z,3639.38
2023-09-23T11:05:52.162Z,1631.25
2023-09-23T11:06:52.276Z,1653.75
2023-09-23T11:07:52.344Z,1023.75
2023-09-23T11:08:52.442Z,1141.88
2023-09-23T11:09:52.503Z,888.75
2023-09-23T11:10:52.624Z,1338.75
2023-09-23T11:11:52.700Z,849.38
2023-09-23T11:12:52.807Z,641.25
2023-09-23T11:13:52.897Z,601.88
2023-09-23T11:14:52.957Z,680.62
2023-09-23T11:15:53.024Z,798.75
2023-09-23T11:16:53.093Z,860.62
2023-09-23T11:17:53.184Z,765.00
2023-09-23T11:18:53.257Z,652.50
2023-09-23T11:19:53.312Z,624.38
2023-09-23T11:20:53.401Z,866.25
2023-09-23T11:21:53.514Z,1732.50
2023-09-23T11:22:53.551Z,1485.00
2023-09-23T11:23:53.638Z,1906.88
2023-09-23T11:24:53.705Z,1597.50
2023-09-23T11:25:53.797Z,3881.25
2023-09-23T11:26:53.861Z,1147.50
2023-09-23T11:27:53.964Z,894.38
2023-09-23T11:28:54.046Z,725.62
2023-09-23T11:29:54.112Z,680.62
2023-09-23T11:30:54.186Z,1018.12
2023-09-23T11:31:54.269Z,855.00
2023-09-23T11:32:54.377Z,765.00
2023-09-23T11:33:54.434Z,770.62
2023-09-23T11:34:54.522Z,624.38
2023-09-23T11:35:54.665Z,495.00
2023-09-23T11:36:54.677Z,427.50
2023-09-23T11:37:54.771Z,382.50
2023-09-23T11:38:54.852Z,343.12
2023-09-23T11:39:54.930Z,320.62
2023-09-23T11:40:55.006Z,343.12
2023-09-23T11:41:55.093Z,421.88
2023-09-23T11:42:55.190Z,607.50
2023-09-23T11:43:55.435Z,798.75
2023-09-23T11:44:55.356Z,826.88
2023-09-23T11:45:55.428Z,787.50
2023-09-23T11:46:55.832Z,618.75
2023-09-23T11:47:55.601Z,495.00
2023-09-23T11:48:55.693Z,579.38
2023-09-23T11:49:55.898Z,787.50
2023-09-23T11:50:55.827Z,1040.62
2023-09-23T11:51:55.930Z,1175.62
2023-09-23T11:52:56.052Z,1119.38
2023-09-23T11:53:56.161Z,939.38
2023-09-23T11:54:56.169Z,1023.75
2023-09-23T11:55:56.210Z,838.12
2023-09-23T11:56:56.328Z,804.38
2023-09-23T11:57:56.387Z,883.12
2023-09-23T11:59:07.916Z,826.88
2023-09-23T11:59:56.589Z,810.00
2023-09-23T12:00:56.632Z,759.38
2023-09-23T12:01:56.769Z,714.38
2023-09-23T12:02:57.009Z,697.50
2023-09-23T12:03:57.022Z,686.25
2023-09-23T12:04:57.082Z,624.38
2023-09-23T12:05:57.114Z,500.62
2023-09-23T12:06:57.222Z,433.12
2023-09-23T12:07:57.208Z,466.88
2023-09-23T12:08:57.282Z,500.62
2023-09-23T12:09:57.368Z,489.38
2023-09-23T12:10:57.460Z,478.12
2023-09-23T12:11:57.567Z,421.88
2023-09-23T12:12:57.631Z,360.00
2023-09-23T12:13:57.717Z,433.12
2023-09-23T12:14:57.780Z,444.38
2023-09-23T12:15:57.868Z,410.62
2023-09-23T12:16:57.992Z,365.62
2023-09-23T12:17:58.171Z,360.00
2023-09-23T12:18:58.084Z,438.75
2023-09-23T12:19:58.217Z,517.50
2023-09-23T12:20:58.235Z,585.00
2023-09-23T12:21:58.384Z,646.88
2023-09-23T12:22:58.637Z,675.00
2023-09-23T12:23:58.481Z,770.62
2023-09-23T12:24:58.578Z,804.38
2023-09-23T12:25:58.712Z,787.50
2023-09-23T12:26:58.692Z,725.62
2023-09-23T12:27:59.770Z,714.38
2023-09-23T12:28:58.836Z,686.25
2023-09-23T12:29:58.878Z,725.62
2023-09-23T12:30:58.983Z,770.62
2023-09-23T12:31:59.061Z,731.25
2023-09-23T12:32:59.147Z,652.50
2023-09-23T12:33:59.234Z,641.25
2023-09-23T12:34:59.326Z,646.88
2023-09-23T12:35:59.356Z,810.00
2023-09-23T12:36:59.465Z,928.12
2023-09-23T12:37:59.587Z,939.38
2023-09-23T12:38:59.651Z,990.00
2023-09-23T12:39:59.771Z,1029.38
2023-09-23T12:40:59.839Z,961.88
2023-09-23T12:41:59.881Z,905.62
2023-09-23T12:43:00.127Z,1608.75
2023-09-23T12:44:00.057Z,1974.38
2023-09-23T12:45:01.235Z,2542.50
2023-09-23T12:46:00.294Z,1389.38
2023-09-23T12:47:00.328Z,1293.75
2023-09-23T12:48:00.554Z,1203.75
2023-09-23T12:49:00.549Z,1136.25
2023-09-23T12:50:01.354Z,1130.62
2023-09-23T12:51:00.638Z,1147.50
2023-09-23T12:52:00.712Z,1192.50
2023-09-23T12:53:00.837Z,1344.38
2023-09-23T12:54:00.933Z,1147.50
2023-09-23T12:55:01.004Z,1080.00
2023-09-23T12:56:01.152Z,939.38
2023-09-23T12:57:01.202Z,787.50
2023-09-23T12:58:01.336Z,646.88
2023-09-23T12:59:01.444Z,669.38
2023-09-23T13:00:01.522Z,781.88
2023-09-23T13:01:01.573Z,900.00
2023-09-23T13:02:01.645Z,1012.50
2023-09-23T13:03:01.796Z,1136.25
2023-09-23T13:04:01.901Z,1136.25
2023-09-23T13:05:01.931Z,1147.50
2023-09-23T13:06:02.035Z,1074.38
2023-09-23T13:07:02.044Z,1035.00
2023-09-23T13:08:02.156Z,961.88
2023-09-23T13:09:02.223Z,815.62
2023-09-23T13:10:02.299Z,691.88
2023-09-23T13:11:02.442Z,838.12
2023-09-23T13:12:02.445Z,1102.50
2023-09-23T13:13:02.519Z,1215.00
2023-09-23T13:14:02.622Z,1254.38
2023-09-23T13:15:02.716Z,1136.25
2023-09-23T13:16:02.913Z,984.38
2023-09-23T13:17:02.932Z,855.00
2023-09-23T13:18:02.916Z,821.25
2023-09-23T13:19:03.061Z,832.50
2023-09-23T13:20:03.113Z,810.00
2023-09-23T13:21:03.194Z,652.50
2023-09-23T13:22:03.250Z,511.88
2023-09-23T13:23:04.067Z,450.00
2023-09-23T13:24:03.393Z,438.75
2023-09-23T13:25:03.586Z,450.00
2023-09-23T13:26:03.662Z,478.12
2023-09-23T13:27:03.614Z,478.12
2023-09-23T13:28:03.697Z,450.00
2023-09-23T13:29:03.800Z,433.12
2023-09-23T13:30:03.885Z,455.62
2023-09-23T13:31:03.997Z,483.75
2023-09-23T13:32:04.049Z,523.12
2023-09-23T13:33:04.199Z,585.00
2023-09-23T13:34:07.059Z,630.00
2023-09-23T13:35:04.339Z,646.88
2023-09-23T13:36:04.381Z,680.62
2023-09-23T13:37:04.446Z,753.75
2023-09-23T13:38:04.539Z,793.12
2023-09-23T13:39:04.589Z,798.75
2023-09-23T13:40:04.695Z,759.38
2023-09-23T13:41:04.804Z,680.62
2023-09-23T13:42:04.865Z,579.38
2023-09-23T13:43:04.977Z,506.25
2023-09-23T13:44:05.066Z,455.62
2023-09-23T13:45:05.121Z,405.00
2023-09-23T13:46:05.253Z,360.00
2023-09-23T13:47:05.409Z,292.50
2023-09-23T13:48:05.518Z,236.25
2023-09-23T13:49:05.438Z,174.38
2023-09-23T13:50:05.575Z,140.62
2023-09-23T13:51:08.143Z,123.75
2023-09-23T13:52:05.712Z,118.12
2023-09-23T13:53:05.849Z,123.75
2023-09-23T13:54:05.881Z,118.12
2023-09-23T13:55:05.953Z,123.75
2023-09-23T13:56:06.066Z,146.25
2023-09-23T13:57:06.117Z,168.75
2023-09-23T13:58:06.212Z,191.25
2023-09-23T13:59:06.337Z,202.50
2023-09-23T14:00:06.382Z,208.12
2023-09-23T14:01:06.520Z,219.38
2023-09-23T14:02:06.583Z,219.38
2023-09-23T14:03:06.666Z,225.00
2023-09-23T14:04:06.739Z,230.62
2023-09-23T14:05:06.823Z,247.50
2023-09-23T14:06:06.891Z,270.00
2023-09-23T14:07:06.931Z,286.88
2023-09-23T14:08:07.025Z,292.50
2023-09-23T14:09:07.088Z,337.50
2023-09-23T14:10:20.630Z,360.00
2023-09-23T14:11:07.366Z,343.12
2023-09-23T14:12:07.327Z,275.62
2023-09-23T14:13:07.407Z,236.25
2023-09-23T14:14:07.504Z,196.88
2023-09-23T14:15:07.573Z,168.75
2023-09-23T14:16:07.699Z,180.00
2023-09-23T14:17:07.747Z,208.12
2023-09-23T14:18:09.133Z,247.50
2023-09-23T14:19:07.986Z,309.38
2023-09-23T14:20:07.999Z,365.62
2023-09-23T14:21:08.072Z,427.50
2023-09-23T14:22:08.154Z,461.25
2023-09-23T14:23:08.310Z,461.25
2023-09-23T14:24:08.327Z,483.75
2023-09-23T14:25:08.392Z,556.88
2023-09-23T14:26:08.559Z,663.75
2023-09-23T14:27:08.590Z,691.88
2023-09-23T14:28:08.685Z,630.00
2023-09-23T14:29:08.762Z,568.12
2023-09-23T14:30:08.811Z,523.12
2023-09-23T14:31:08.970Z,444.38
2023-09-23T14:32:09.011Z,382.50
2023-09-23T14:33:09.111Z,315.00
2023-09-23T14:34:09.143Z,253.12
2023-09-23T14:35:09.247Z,202.50
2023-09-23T14:36:09.302Z,146.25
2023-09-23T14:37:09.385Z,118.12
2023-09-23T14:38:09.498Z,101.25
2023-09-23T14:39:09.539Z,101.25
2023-09-23T14:40:09.615Z,90.00
2023-09-23T14:41:10.023Z,90.00
2023-09-23T14:42:09.789Z,101.25
2023-09-23T14:43:09.871Z,123.75
2023-09-23T14:44:10.001Z,202.50
2023-09-23T14:45:10.074Z,331.88
2023-09-23T14:46:10.175Z,483.75
2023-09-23T14:47:10.250Z,646.88
2023-09-23T14:48:10.329Z,765.00
2023-09-23T14:49:10.365Z,832.50
2023-09-23T14:50:10.475Z,821.25
2023-09-23T14:51:10.524Z,759.38
2023-09-23T14:52:10.607Z,675.00
2023-09-23T14:53:10.733Z,585.00
2023-09-23T14:54:10.748Z,500.62
2023-09-23T14:55:10.847Z,444.38
2023-09-23T14:56:10.973Z,393.75
2023-09-23T14:57:11.009Z,343.12
2023-09-23T14:58:11.085Z,270.00
2023-09-23T14:59:11.232Z,225.00
2023-09-23T15:00:11.261Z,185.62
2023-09-23T15:01:11.359Z,202.50
2023-09-23T15:02:11.471Z,225.00
2023-09-23T15:03:11.584Z,241.88
2023-09-23T15:04:11.724Z,258.75
2023-09-23T15:05:11.702Z,247.50
2023-09-23T15:06:11.719Z,230.62
2023-09-23T15:07:11.835Z,213.75
2023-09-23T15:08:11.901Z,258.75
2023-09-23T15:09:11.988Z,309.38
2023-09-23T15:10:12.086Z,241.88
2023-09-23T15:11:12.138Z,151.88
2023-09-23T15:12:12.201Z,118.12
2023-09-23T15:13:12.289Z,146.25
2023-09-23T15:14:12.438Z,202.50
2023-09-23T15:15:12.457Z,241.88
2023-09-23T15:16:12.559Z,264.38
2023-09-23T15:17:12.588Z,275.62
2023-09-23T15:18:12.720Z,292.50
2023-09-23T15:19:12.746Z,303.75
2023-09-23T15:20:12.854Z,303.75
2023-09-23T15:21:12.900Z,298.12
2023-09-23T15:22:12.977Z,286.88
2023-09-23T15:23:13.084Z,264.38
2023-09-23T15:24:13.128Z,219.38
2023-09-23T15:25:13.217Z,151.88
2023-09-23T15:26:13.343Z,101.25
2023-09-23T15:27:13.372Z,84.38
2023-09-23T15:28:13.444Z,118.12
2023-09-23T15:29:13.545Z,163.12
2023-09-23T15:30:13.638Z,191.25
2023-09-23T15:31:13.740Z,191.25
2023-09-23T15:32:13.865Z,191.25
2023-09-23T15:33:14.000Z,208.12
2023-09-23T15:34:14.014Z,208.12
2023-09-23T15:35:14.091Z,202.50
2023-09-23T15:36:14.170Z,196.88
2023-09-23T15:37:14.205Z,213.75
2023-09-23T15:38:14.380Z,270.00
2023-09-23T15:39:14.381Z,309.38
2023-09-23T15:40:14.476Z,320.62
2023-09-23T15:41:14.578Z,337.50
2023-09-23T15:42:14.648Z,354.38
2023-09-23T15:43:14.750Z,365.62
2023-09-23T15:44:14.842Z,376.88
2023-09-23T15:45:14.916Z,399.38
2023-09-23T15:46:15.039Z,388.12
2023-09-23T15:47:15.084Z,388.12
2023-09-23T15:48:15.250Z,388.12
2023-09-23T15:49:15.264Z,405.00
2023-09-23T15:50:15.382Z,433.12
2023-09-23T15:51:15.406Z,427.50
2023-09-23T15:52:15.504Z,410.62
2023-09-23T15:53:15.621Z,393.75
2023-09-23T15:54:15.636Z,376.88
2023-09-23T15:55:15.709Z,382.50
2023-09-23T15:56:15.820Z,382.50
2023-09-23T15:57:15.883Z,376.88
2023-09-23T15:58:15.986Z,365.62
2023-09-23T15:59:16.046Z,343.12
2023-09-23T16:00:16.132Z,326.25
2023-09-23T16:01:16.228Z,315.00
2023-09-23T16:02:16.379Z,298.12
2023-09-23T16:03:16.757Z,286.88
2023-09-23T16:04:16.578Z,264.38
2023-09-23T16:05:16.684Z,258.75
2023-09-23T16:06:16.663Z,258.75
2023-09-23T16:07:16.742Z,247.50
2023-09-23T16:08:16.877Z,241.88
2023-09-23T16:09:16.920Z,225.00
2023-09-23T16:10:17.020Z,219.38
2023-09-23T16:11:17.138Z,208.12
2023-09-23T16:12:17.199Z,202.50
2023-09-23T16:13:17.275Z,196.88
2023-09-23T16:14:17.407Z,185.62
2023-09-23T16:15:17.420Z,174.38
2023-09-23T16:16:17.596Z,163.12
2023-09-23T16:17:17.724Z,151.88
2023-09-23T16:18:20.021Z,146.25
2023-09-23T16:19:17.782Z,140.62
2023-09-23T16:20:17.914Z,135.00
2023-09-23T16:21:17.937Z,129.38
2023-09-23T16:22:18.004Z,123.75
2023-09-23T16:23:18.169Z,118.12
2023-09-23T16:24:18.216Z,112.50
2023-09-23T16:25:18.305Z,112.50
2023-09-23T16:26:18.345Z,112.50
2023-09-23T16:27:18.384Z,106.88
2023-09-23T16:28:18.489Z,106.88
2023-09-23T16:29:18.579Z,101.25
2023-09-23T16:30:18.673Z,95.62
2023-09-23T16:31:18.771Z,90.00
2023-09-23T16:32:18.787Z,84.38
2023-09-23T16:33:18.878Z,84.38
2023-09-23T16:34:18.924Z,84.38
2023-09-23T16:35:19.042Z,78.75
2023-09-23T16:36:19.104Z,78.75
2023-09-23T16:37:19.171Z,78.75
2023-09-23T16:38:19.294Z,78.75
2023-09-23T16:39:19.326Z,73.12
2023-09-23T16:40:19.459Z,73.12
2023-09-23T16:41:19.820Z,67.50
2023-09-23T16:42:19.597Z,67.50
2023-09-23T16:43:19.663Z,61.88
2023-09-23T16:44:19.774Z,50.62
2023-09-23T16:45:19.853Z,50.62
2023-09-23T16:46:19.980Z,45.00
2023-09-23T16:47:20.070Z,45.00
2023-09-23T16:48:20.159Z,45.00
2023-09-23T16:49:20.150Z,45.00
2023-09-23T16:50:20.280Z,50.62
2023-09-23T16:51:20.339Z,56.25
2023-09-23T16:52:20.402Z,56.25
2023-09-23T16:53:20.558Z,61.88
2023-09-23T16:54:20.547Z,61.88
2023-09-23T16:55:20.633Z,67.50
2023-09-23T16:56:20.816Z,61.88
2023-09-23T16:57:20.786Z,56.25
2023-09-23T16:58:20.865Z,56.25
2023-09-23T16:59:20.985Z,56.25
2023-09-23T17:00:21.030Z,56.25
2023-09-23T17:01:21.280Z,56.25
2023-09-23T17:02:21.289Z,56.25
2023-09-23T17:03:21.368Z,56.25
2023-09-23T17:04:21.365Z,56.25
2023-09-23T17:05:21.469Z,50.62
2023-09-23T17:06:22.953Z,50.62
2023-09-23T17:07:21.553Z,50.62
2023-09-23T17:08:21.681Z,50.62
2023-09-23T17:09:21.729Z,50.62
2023-09-23T17:10:21.757Z,45.00
2023-09-23T17:11:21.900Z,45.00
2023-09-23T17:12:21.960Z,45.00
2023-09-23T17:13:22.024Z,45.00
2023-09-23T17:14:22.116Z,39.38
2023-09-23T17:15:22.269Z,39.38
2023-09-23T17:16:22.352Z,33.75
2023-09-23T17:17:22.526Z,33.75
2023-09-23T17:18:22.523Z,28.12
2023-09-23T17:19:22.557Z,28.12
2023-09-23T17:20:22.669Z,28.12
2023-09-23T17:21:22.830Z,22.50
2023-09-23T17:22:22.813Z,22.50
2023-09-23T17:23:22.908Z,16.88
2023-09-23T17:24:22.983Z,16.88
2023-09-23T17:25:23.102Z,16.88
2023-09-23T17:26:23.228Z,11.25
2023-09-23T17:27:23.274Z,11.25
2023-09-23T17:28:23.329Z,11.25
2023-09-23T17:29:23.434Z,5.62
2023-09-23T17:30:23.501Z,5.62
2023-09-23T17:31:23.609Z,5.62
2023-09-23T17:32:23.724Z,5.62
2023-09-23T17:33:23.859Z,5.62
2023-09-23T17:34:23.879Z,5.62
2023-09-23T17:35:23.938Z,0.00
2023-09-23T17:36:24.042Z,0.00
2023-09-23T17:37:24.098Z,0.00
2023-09-23T17:38:24.213Z,0.00
2023-09-23T17:39:24.261Z,0.00
2023-09-23T17:40:24.297Z,0.00
2023-09-23T17:41:24.420Z,0.00
2023-09-23T17:42:24.494Z,0.00
2023-09-23T17:43:24.627Z,0.00
2023-09-23T17:44:24.673Z,0.00
2023-09-23T17:45:24.738Z,0.00
2023-09-23T17:46:24.860Z,0.00
2023-09-23T17:47:24.982Z,0.00
2023-09-23T17:48:25.036Z,0.00
2023-09-23T17:49:25.034Z,0.00
2023-09-23T17:50:25.206Z,0.00
2023-09-23T17:51:25.200Z,0.00
2023-09-23T17:52:25.287Z,0.00
2023-09-23T17:53:25.417Z,0.00
2023-09-23T17:54:25.463Z,0.00
2023-09-23T17:55:25.505Z,0.00
2023-09-23T17:56:25.660Z,0.00
2023-09-23T17:57:25.669Z,0.00
2023-09-23T17:58:25.747Z,0.00
2023-09-23T17:59:25.834Z,0.00
2023-09-23T18:00:25.909Z,0.00
2023-09-23T18:01:26.028Z,0.00
2023-09-23T18:02:26.257Z,0.00
2023-09-23T18:03:26.340Z,0.00
2023-09-23T18:04:26.425Z,0.00
2023-09-23T18:05:26.347Z,0.00
2023-09-23T18:06:26.401Z,0.00
2023-09-23T18:07:26.486Z,0.00
2023-09-23T18:08:26.605Z,0.00
2023-09-23T18:09:26.662Z,0.00
2023-09-23T18:10:26.728Z,0.00
2023-09-23T18:11:26.839Z,0.00
2023-09-23T18:12:26.931Z,0.00
2023-09-23T18:13:26.971Z,0.00
2023-09-23T18:14:27.072Z,0.00
2023-09-23T18:15:27.095Z,0.00
2023-09-23T18:16:27.227Z,0.00
2023-09-23T18:17:27.414Z,0.00
2023-09-23T18:18:27.397Z,0.00
2023-09-23T18:19:27.419Z,0.00
2023-09-23T18:20:27.556Z,0.00
2023-09-23T18:21:27.564Z,0.00
2023-09-23T18:22:27.677Z,0.00
2023-09-23T18:23:27.962Z,0.00
2023-09-23T18:24:27.890Z,0.00
2023-09-23T18:25:27.879Z,0.00
2023-09-23T18:26:27.984Z,0.00
2023-09-23T18:27:28.184Z,0.00
2023-09-23T18:28:28.138Z,0.00
2023-09-23T18:29:28.251Z,0.00
2023-09-23T18:30:28.294Z,0.00
2023-09-23T18:31:28.387Z,0.00
2023-09-23T18:32:28.548Z,0.00
2023-09-23T18:33:28.680Z,0.00
2023-09-23T18:34:28.722Z,0.00
2023-09-23T18:35:28.808Z,0.00
2023-09-23T18:36:28.814Z,0.00
2023-09-23T18:37:28.868Z,0.00
2023-09-23T18:38:29.009Z,0.00
2023-09-23T18:39:29.055Z,0.00
2023-09-23T18:40:29.112Z,0.00
2023-09-23T18:41:29.207Z,0.00
2023-09-23T18:42:29.272Z,0.00
2023-09-23T18:43:29.364Z,0.00
2023-09-23T18:44:29.518Z,0.00
2023-09-23T18:45:29.572Z,0.00
2023-09-23T18:46:29.597Z,0.00
2023-09-23T18:47:29.757Z,0.00
2023-09-23T18:48:32.712Z,0.00
2023-09-23T18:49:29.850Z,0.00
2023-09-23T18:50:29.986Z,0.00
2023-09-23T18:51:29.996Z,0.00
2023-09-23T18:52:30.058Z,0.00
2023-09-23T18:53:30.175Z,0.00
2023-09-23T18:54:30.225Z,0.00
2023-09-23T18:55:30.333Z,0.00
2023-09-23T18:56:30.402Z,0.00
2023-09-23T18:57:30.465Z,0.00
2023-09-23T18:58:30.551Z,0.00
